createdAt,value
2016-12-24T00:00:41.312Z,6.47
2016-12-24T00:02:15.046Z,6.53
2016-12-24T00:03:49.419Z,6.44
2016-12-24T00:05:23.195Z,6.59
2016-12-24T00:06:57.048Z,6.52
2016-12-24T00:08:31.390Z,6.56
2016-12-24T00:10:05.323Z,6.56
2016-12-24T00:11:39.141Z,6.47
2016-12-24T00:13:14.112Z,6.56
2016-12-24T00:14:47.866Z,6.6
2016-12-24T00:16:49.403Z,6.56
2016-12-24T00:18:23.490Z,6.57
2016-12-24T00:19:57.408Z,6.72
2016-12-24T00:21:32.082Z,6.8
2016-12-24T00:23:24.907Z,6.68
2016-12-24T00:24:58.876Z,6.86
2016-12-24T00:26:32.184Z,6.7
2016-12-24T00:28:08.205Z,6.82
2016-12-24T00:29:42.055Z,6.72
2016-12-24T00:31:16.083Z,6.72
2016-12-24T00:32:49.514Z,6.8
2016-12-24T00:34:23.239Z,6.67
2016-12-24T00:35:57.201Z,6.77
2016-12-24T00:37:31.552Z,6.7
2016-12-24T00:39:06.007Z,6.67
2016-12-24T00:40:39.687Z,6.67
2016-12-24T00:42:14.600Z,6.67
2016-12-24T00:43:49.546Z,6.57
2016-12-24T00:45:18.484Z,6.57
2016-12-24T00:46:51.848Z,6.7
2016-12-24T00:48:25.633Z,6.68
2016-12-24T00:49:59.263Z,6.7
2016-12-24T00:51:33.591Z,6.71
2016-12-24T00:53:33.228Z,6.67
2016-12-24T00:55:06.537Z,6.65
2016-12-24T00:56:40.355Z,6.56
2016-12-24T00:58:13.876Z,6.74
2016-12-24T00:59:47.588Z,6.65
2016-12-24T01:01:20.850Z,6.64
2016-12-24T01:02:54.463Z,6.68
2016-12-24T01:04:28.311Z,6.68
2016-12-24T01:06:01.933Z,6.57
2016-12-24T01:07:55.037Z,6.64
2016-12-24T01:09:28.655Z,6.57
2016-12-24T01:11:01.933Z,6.54
2016-12-24T01:12:35.631Z,6.64
2016-12-24T01:14:09.444Z,6.67
2016-12-24T01:15:42.986Z,6.67
2016-12-24T01:17:41.764Z,6.64
2016-12-24T01:18:55.836Z,6.67
2016-12-24T01:20:29.969Z,6.64
2016-12-24T01:22:23.104Z,6.7
2016-12-24T01:23:56.768Z,6.67
2016-12-24T01:25:30.126Z,6.68
2016-12-24T01:27:04.549Z,6.64
2016-12-24T01:28:37.827Z,6.72
2016-12-24T01:30:11.299Z,6.8
2016-12-24T01:31:45.195Z,6.77
2016-12-24T01:33:18.731Z,6.74
2016-12-24T01:34:52.340Z,6.71
2016-12-24T01:36:25.661Z,6.71
2016-12-24T01:37:58.907Z,6.68
2016-12-24T01:39:32.939Z,6.74
2016-12-24T01:41:06.259Z,6.72
2016-12-24T01:42:41.113Z,6.82
2016-12-24T01:44:09.372Z,6.75
2016-12-24T01:45:44.837Z,6.74
2016-12-24T01:47:20.975Z,6.74
2016-12-24T01:48:54.430Z,6.71
2016-12-24T01:50:28.119Z,6.71
2016-12-24T01:52:21.142Z,6.78
2016-12-24T01:53:35.242Z,6.71
2016-12-24T01:55:09.251Z,6.75
2016-12-24T01:56:42.586Z,6.83
2016-12-24T01:58:35.364Z,6.85
2016-12-24T02:00:08.845Z,6.82
2016-12-24T02:01:42.815Z,6.8
2016-12-24T02:03:16.123Z,6.86
2016-12-24T02:04:50.957Z,6.9
2016-12-24T02:06:26.671Z,6.96
2016-12-24T02:08:00.187Z,7.05
2016-12-24T02:09:33.564Z,7.04
2016-12-24T02:11:07.457Z,7.13
2016-12-24T02:12:41.548Z,7.11
2016-12-24T02:14:15.500Z,7.04
2016-12-24T02:15:49.041Z,6.97
2016-12-24T02:17:22.611Z,6.97
2016-12-24T02:19:15.826Z,6.96
2016-12-24T02:20:49.321Z,7.05
2016-12-24T02:22:17.962Z,6.97
2016-12-24T02:23:32.372Z,7.11
2016-12-24T02:25:06.051Z,7.11
2016-12-24T02:26:39.676Z,7.15
2016-12-24T02:28:13.151Z,7.08
2016-12-24T02:30:06.344Z,7.15
2016-12-24T02:31:35.823Z,7.15
2016-12-24T02:32:49.921Z,7.08
2016-12-24T02:34:23.308Z,7.13
2016-12-24T02:35:56.964Z,7.18
2016-12-24T02:37:57.960Z,7.13
2016-12-24T02:39:32.392Z,7.08
2016-12-24T02:41:05.982Z,7.14
2016-12-24T02:42:39.666Z,7.28
2016-12-24T02:44:13.414Z,7.32
2016-12-24T02:45:47.221Z,7.26
2016-12-24T02:47:40.493Z,7.26
2016-12-24T02:49:13.922Z,7.26
2016-12-24T02:50:48.204Z,7.4
2016-12-24T02:52:21.980Z,7.31
2016-12-24T02:53:55.602Z,7.28
2016-12-24T02:55:29.249Z,7.31
2016-12-24T02:56:57.643Z,7.44
2016-12-24T02:58:31.111Z,7.31
2016-12-24T03:00:12.810Z,7.28
2016-12-24T03:01:46.431Z,7.36
2016-12-24T03:03:19.997Z,7.33
2016-12-24T03:04:53.275Z,7.29
2016-12-24T03:07:56.307Z,7.39
2016-12-24T03:09:29.573Z,7.36
2016-12-24T03:11:02.915Z,7.47
2016-12-24T03:12:36.724Z,7.29
2016-12-24T03:14:10.711Z,7.36
2016-12-24T03:15:44.079Z,7.43
2016-12-24T03:17:18.059Z,7.4
2016-12-24T03:19:11.441Z,7.4
2016-12-24T03:20:45.443Z,7.47
2016-12-24T03:22:19.073Z,7.41
2016-12-24T03:23:53.449Z,7.41
2016-12-24T03:25:27.237Z,7.39
2016-12-24T03:26:55.427Z,7.36
2016-12-24T03:28:09.732Z,7.39
2016-12-24T03:29:38.466Z,7.36
2016-12-24T03:31:11.796Z,7.44
2016-12-24T03:32:45.596Z,7.4
2016-12-24T03:34:19.090Z,7.33
2016-12-24T03:35:52.369Z,7.37
2016-12-24T03:37:26.230Z,7.39
2016-12-24T03:38:59.881Z,7.28
2016-12-24T03:40:33.134Z,7.41
2016-12-24T03:42:06.367Z,7.29
2016-12-24T03:44:01.828Z,7.29
2016-12-24T03:45:35.337Z,7.29
2016-12-24T03:47:08.623Z,7.28
2016-12-24T03:48:41.920Z,7.22
2016-12-24T03:50:16.153Z,7.23
2016-12-24T03:51:49.410Z,7.23
2016-12-24T03:53:22.967Z,7.28
2016-12-24T03:54:56.321Z,7.28
2016-12-24T03:56:57.108Z,7.29
2016-12-24T03:58:31.146Z,7.29
2016-12-24T04:00:05.121Z,7.22
2016-12-24T04:01:38.658Z,7.32
2016-12-24T04:03:12.236Z,7.29
2016-12-24T04:04:45.821Z,7.26
2016-12-24T04:06:19.618Z,7.31
2016-12-24T04:07:53.191Z,7.31
2016-12-24T04:09:26.810Z,7.25
2016-12-24T04:11:00.814Z,7.23
2016-12-24T04:12:34.624Z,7.29
2016-12-24T04:14:08.178Z,7.29
2016-12-24T04:15:41.762Z,7.22
2016-12-24T04:17:34.195Z,7.29
2016-12-24T04:19:08.276Z,7.28
2016-12-24T04:20:41.829Z,7.28
2016-12-24T04:22:15.400Z,7.23
2016-12-24T04:23:49.007Z,7.29
2016-12-24T04:25:22.239Z,7.28
2016-12-24T04:26:36.643Z,7.28
2016-12-24T04:28:04.710Z,7.29
2016-12-24T04:29:35.251Z,7.28
2016-12-24T04:31:08.904Z,7.37
2016-12-24T04:32:42.415Z,7.32
2016-12-24T04:34:15.973Z,7.28
2016-12-24T04:35:49.637Z,7.32
2016-12-24T04:37:23.193Z,7.31
2016-12-24T04:38:56.450Z,7.33
2016-12-24T04:40:29.943Z,7.29
2016-12-24T04:42:04.370Z,7.26
2016-12-24T04:43:37.631Z,7.29
2016-12-24T04:45:11.710Z,7.25
2016-12-24T04:46:45.087Z,7.26
2016-12-24T04:48:38.158Z,7.28
2016-12-24T04:50:12.575Z,7.19
2016-12-24T04:51:46.183Z,7.14
2016-12-24T04:53:19.906Z,7.11
2016-12-24T04:54:53.707Z,7.14
2016-12-24T04:56:27.017Z,7.14
2016-12-24T04:57:55.771Z,7.32
2016-12-24T04:59:29.573Z,7.28
2016-12-24T05:01:03.214Z,7.22
2016-12-24T05:02:36.819Z,7.11
2016-12-24T05:04:10.361Z,7.13
2016-12-24T05:05:44.352Z,7.22
2016-12-24T05:07:17.896Z,7.18
2016-12-24T05:08:53.009Z,7.13
2016-12-24T05:10:26.342Z,7.15
2016-12-24T05:11:59.969Z,7.31
2016-12-24T05:13:33.280Z,7.11
2016-12-24T05:15:07.096Z,7.18
2016-12-24T05:16:41.228Z,7.21
2016-12-24T05:18:15.196Z,7.26
2016-12-24T05:19:48.512Z,7.26
2016-12-24T05:21:43.895Z,7.31
2016-12-24T05:23:17.317Z,7.22
2016-12-24T05:24:51.368Z,7.15
2016-12-24T05:26:25.418Z,7.14
2016-12-24T05:27:59.338Z,7.1
2016-12-24T05:29:32.658Z,7.14
2016-12-24T05:31:05.994Z,7.13
2016-12-24T05:32:39.745Z,7.14
2016-12-24T05:34:13.601Z,7
2016-12-24T05:35:46.873Z,7.07
2016-12-24T05:37:20.532Z,6.95
2016-12-24T05:38:54.549Z,6.85
2016-12-24T05:40:28.664Z,6.95
2016-12-24T05:42:22.675Z,7
2016-12-24T05:43:56.248Z,6.89
2016-12-24T05:45:29.516Z,7
2016-12-24T05:47:02.830Z,7.04
2016-12-24T05:48:36.410Z,7
2016-12-24T05:50:10.918Z,7.04
2016-12-24T05:51:44.268Z,7.04
2016-12-24T05:53:17.667Z,7.11
2016-12-24T05:54:50.925Z,7.04
2016-12-24T05:56:25.378Z,6.97
2016-12-24T05:57:58.648Z,7.01
2016-12-24T05:59:32.481Z,7
2016-12-24T06:01:06.119Z,6.96
2016-12-24T06:03:07.184Z,6.97
2016-12-24T06:04:41.254Z,6.9
2016-12-24T06:06:14.536Z,6.87
2016-12-24T06:07:48.162Z,6.75
2016-12-24T06:09:22.316Z,6.8
2016-12-24T06:10:55.548Z,6.89
2016-12-24T06:12:29.408Z,6.74
2016-12-24T06:13:58.045Z,6.78
2016-12-24T06:15:32.291Z,6.75
2016-12-24T06:17:05.833Z,6.7
2016-12-24T06:18:39.145Z,6.83
2016-12-24T06:20:09.403Z,6.74
2016-12-24T06:21:43.222Z,6.7
2016-12-24T06:23:16.930Z,6.74
2016-12-24T06:24:50.555Z,6.77
2016-12-24T06:26:24.130Z,6.74
2016-12-24T06:27:53.920Z,6.78
2016-12-24T06:29:28.170Z,6.72
2016-12-24T06:31:02.043Z,6.72
2016-12-24T06:32:35.744Z,6.8
2016-12-24T06:34:09.295Z,6.78
2016-12-24T06:35:43.515Z,6.8
2016-12-24T06:37:17.181Z,6.71
2016-12-24T06:38:50.625Z,6.65
2016-12-24T06:40:24.188Z,6.57
2016-12-24T06:41:57.808Z,6.64
2016-12-24T06:43:31.463Z,6.62
2016-12-24T06:45:24.609Z,6.74
2016-12-24T06:46:58.516Z,6.67
2016-12-24T06:48:31.849Z,6.7
2016-12-24T06:50:05.432Z,6.64
2016-12-24T06:51:39.321Z,6.67
2016-12-24T06:53:12.888Z,6.62
2016-12-24T06:54:46.463Z,6.59
2016-12-24T06:56:20.337Z,6.62
2016-12-24T06:57:53.927Z,6.65
2016-12-24T06:59:29.859Z,6.72
2016-12-24T07:01:03.554Z,6.75
2016-12-24T07:02:37.279Z,6.68
2016-12-24T07:04:11.090Z,6.68
2016-12-24T07:05:44.596Z,6.7
2016-12-24T07:08:47.274Z,6.7
2016-12-24T07:10:21.075Z,6.64
2016-12-24T07:11:55.311Z,6.78
2016-12-24T07:13:28.890Z,6.75
2016-12-24T07:15:02.343Z,6.74
2016-12-24T07:16:55.372Z,6.74
2016-12-24T07:18:29.266Z,6.77
2016-12-24T07:20:03.084Z,6.7
2016-12-24T07:21:31.209Z,6.7
2016-12-24T07:22:45.288Z,6.92
2016-12-24T07:24:19.620Z,6.83
2016-12-24T07:25:53.603Z,6.9
2016-12-24T07:27:46.795Z,6.87
2016-12-24T07:29:20.171Z,7.04
2016-12-24T07:30:53.731Z,7.13
2016-12-24T07:32:28.430Z,7.26
2016-12-24T07:33:57.986Z,7.29
2016-12-24T07:35:31.456Z,7.31
2016-12-24T07:37:05.893Z,7.4
2016-12-24T07:38:40.186Z,7.37
2016-12-24T07:40:13.509Z,7.46
2016-12-24T07:41:48.050Z,7.36
2016-12-24T07:43:22.124Z,7.41
2016-12-24T07:44:56.009Z,7.44
2016-12-24T07:46:31.467Z,7.44
2016-12-24T07:48:06.448Z,7.37
2016-12-24T07:50:00.297Z,7.46
2016-12-24T07:51:33.601Z,7.55
2016-12-24T07:53:07.492Z,7.5
2016-12-24T07:54:41.042Z,7.36
2016-12-24T07:56:14.990Z,7.26
2016-12-24T07:57:50.092Z,7.36
2016-12-24T07:59:23.495Z,7.41
2016-12-24T08:01:00.138Z,7.4
2016-12-24T08:02:34.088Z,7.53
2016-12-24T08:04:07.381Z,7.46
2016-12-24T08:05:40.980Z,7.5
2016-12-24T08:07:14.248Z,7.46
2016-12-24T08:08:44.882Z,7.48
2016-12-24T08:10:19.590Z,7.58
2016-12-24T08:11:56.030Z,7.59
2016-12-24T08:13:30.389Z,7.58
2016-12-24T08:15:24.104Z,7.66
2016-12-24T08:16:57.960Z,7.66
2016-12-24T08:18:32.246Z,7.7
2016-12-24T08:20:07.070Z,7.59
2016-12-24T08:21:41.857Z,7.72
2016-12-24T08:23:15.931Z,7.77
2016-12-24T08:24:49.603Z,7.64
2016-12-24T08:26:45.760Z,7.61
2016-12-24T08:28:20.083Z,7.66
2016-12-24T08:29:54.231Z,7.75
2016-12-24T08:31:29.627Z,7.83
2016-12-24T08:33:03.470Z,7.81
2016-12-24T08:34:37.678Z,7.84
2016-12-24T08:36:10.977Z,7.81
2016-12-24T08:37:46.526Z,7.81
2016-12-24T08:39:20.040Z,7.8
2016-12-24T08:40:53.652Z,7.8
2016-12-24T08:42:46.737Z,7.81
2016-12-24T08:44:20.092Z,7.69
2016-12-24T08:45:53.999Z,7.77
2016-12-24T08:47:27.921Z,7.56
2016-12-24T08:49:01.350Z,7.61
2016-12-24T08:50:35.197Z,7.64
2016-12-24T08:52:09.258Z,7.61
2016-12-24T08:53:43.149Z,7.78
2016-12-24T08:55:16.416Z,7.8
2016-12-24T08:56:50.136Z,7.77
2016-12-24T08:58:24.190Z,7.69
2016-12-24T08:59:58.539Z,7.77
2016-12-24T09:01:32.367Z,7.81
2016-12-24T09:03:06.073Z,7.87
2016-12-24T09:04:59.987Z,8.01
2016-12-24T09:06:34.288Z,7.93
2016-12-24T09:08:07.738Z,8.08
2016-12-24T09:09:41.305Z,8.13
2016-12-24T09:11:15.483Z,8.2
2016-12-24T09:12:49.950Z,8.24
2016-12-24T09:14:23.224Z,8.34
2016-12-24T09:15:56.723Z,8.41
2016-12-24T09:17:30.734Z,8.42
2016-12-24T09:19:29.093Z,8.42
2016-12-24T09:21:05.235Z,8.57
2016-12-24T09:23:05.021Z,8.74
2016-12-24T09:24:41.119Z,8.72
2016-12-24T09:28:18.763Z,8.74
2016-12-24T09:29:54.835Z,8.64
2016-12-24T09:31:29.197Z,8.71
2016-12-24T09:33:02.589Z,8.72
2016-12-24T09:34:36.135Z,8.66
2016-12-24T09:36:37.339Z,8.78
2016-12-24T09:38:12.569Z,8.77
2016-12-24T09:39:46.392Z,8.75
2016-12-24T09:41:19.931Z,8.63
2016-12-24T09:43:13.998Z,8.6
2016-12-24T09:44:47.402Z,8.6
2016-12-24T09:46:23.292Z,8.68
2016-12-24T09:47:57.776Z,8.77
2016-12-24T09:49:32.335Z,8.77
2016-12-24T09:51:05.823Z,8.64
2016-12-24T09:52:39.200Z,8.74
2016-12-24T09:54:12.461Z,8.79
2016-12-24T09:55:47.222Z,8.87
2016-12-24T09:57:20.593Z,8.79
2016-12-24T09:58:53.952Z,8.82
2016-12-24T10:00:27.387Z,8.95
2016-12-24T10:02:01.193Z,8.93
2016-12-24T10:03:53.994Z,8.93
2016-12-24T10:05:27.719Z,8.86
2016-12-24T10:07:01.872Z,8.86
2016-12-24T10:08:35.288Z,8.97
2016-12-24T10:10:08.928Z,8.93
2016-12-24T10:11:42.196Z,8.92
2016-12-24T10:13:10.844Z,8.95
2016-12-24T10:14:25.151Z,8.99
2016-12-24T10:16:18.613Z,9
2016-12-24T10:17:54.157Z,9.05
2016-12-24T10:19:28.130Z,9.11
2016-12-24T10:21:02.185Z,9.08
2016-12-24T10:22:35.465Z,9.13
2016-12-24T10:24:09.026Z,9.18
2016-12-24T10:25:43.874Z,9.02
2016-12-24T10:27:18.409Z,9.02
2016-12-24T10:28:51.688Z,9.13
2016-12-24T10:30:25.403Z,9.09
2016-12-24T10:31:59.230Z,9.29
2016-12-24T10:33:52.727Z,9.29
2016-12-24T10:35:26.825Z,9.39
2016-12-24T10:37:00.483Z,9.36
2016-12-24T10:38:34.481Z,9.33
2016-12-24T10:40:08.764Z,9.4
2016-12-24T10:41:42.086Z,9.49
2016-12-24T10:43:15.673Z,9.56
2016-12-24T10:44:49.252Z,9.7
2016-12-24T10:46:22.527Z,9.69
2016-12-24T10:47:56.508Z,9.77
2016-12-24T10:49:30.727Z,9.94
2016-12-24T10:50:59.675Z,10.06
2016-12-24T10:52:33.746Z,10.15
2016-12-24T10:54:07.062Z,10.23
2016-12-24T10:55:41.052Z,10.28
2016-12-24T10:57:15.196Z,10.25
2016-12-24T10:58:48.516Z,10.23
2016-12-24T11:00:21.784Z,10.27
2016-12-24T11:01:55.432Z,10.12
2016-12-24T11:03:29.405Z,10.09
2016-12-24T11:05:03.147Z,10.17
2016-12-24T11:06:31.629Z,10.18
2016-12-24T11:08:01.264Z,10.13
2016-12-24T11:09:35.609Z,10.03
2016-12-24T11:11:09.551Z,10.1
2016-12-24T11:12:43.624Z,10.09
2016-12-24T11:14:17.239Z,10.13
2016-12-24T11:15:50.976Z,10.07
2016-12-24T11:17:25.062Z,9.94
2016-12-24T11:19:24.514Z,9.94
2016-12-24T11:21:02.339Z,9.94
2016-12-24T11:22:58.839Z,9.77
2016-12-24T11:24:31.344Z,9.97
2016-12-24T11:26:06.154Z,9.91
2016-12-24T11:27:39.766Z,10.02
2016-12-24T11:29:15.141Z,10.07
2016-12-24T11:30:48.945Z,10.1
2016-12-24T11:32:23.905Z,10.07
2016-12-24T11:34:15.580Z,10.05
2016-12-24T11:35:53.601Z,9.95
2016-12-24T11:37:31.688Z,9.91
2016-12-24T11:39:08.387Z,9.94
2016-12-24T11:40:58.459Z,9.88
2016-12-24T11:42:13.654Z,9.99
2016-12-24T11:44:08.511Z,9.9
2016-12-24T11:45:45.280Z,9.81
2016-12-24T11:47:21.628Z,9.81
2016-12-24T11:48:56.235Z,9.73
2016-12-24T11:50:51.850Z,9.84
2016-12-24T11:52:29.658Z,9.97
2016-12-24T11:54:04.775Z,10.02
2016-12-24T11:55:38.853Z,10.06
2016-12-24T11:57:30.988Z,10.06
2016-12-24T11:58:45.624Z,10.02
2016-12-24T12:00:42.872Z,10.1
2016-12-24T12:02:22.080Z,10.06
2016-12-24T12:04:19.319Z,10.13
2016-12-24T12:05:53.539Z,10.1
2016-12-24T12:07:28.878Z,10.24
2016-12-24T12:09:02.607Z,10.1
2016-12-24T12:10:32.720Z,10.13
2016-12-24T12:12:06.560Z,10.2
2016-12-24T12:13:40.745Z,10.25
2016-12-24T12:15:14.597Z,10.39
2016-12-24T12:16:48.300Z,10.28
2016-12-24T12:18:21.965Z,10.23
2016-12-24T12:20:21.144Z,10.17
2016-12-24T12:21:57.380Z,10.23
2016-12-24T12:23:30.780Z,10.3
2016-12-24T12:25:04.404Z,10.23
2016-12-24T12:26:38.232Z,10.45
2016-12-24T12:28:11.885Z,10.23
2016-12-24T12:31:15.343Z,10.41
2016-12-24T12:32:48.927Z,10.34
2016-12-24T12:35:19.486Z,10.24
2016-12-24T12:36:53.775Z,10.36
2016-12-24T12:38:25.104Z,10.39
2016-12-24T12:39:59.628Z,10.42
2016-12-24T12:41:33.694Z,10.39
2016-12-24T12:43:08.598Z,10.24
2016-12-24T12:44:46.299Z,10.25
2016-12-24T12:46:39.537Z,10.34
2016-12-24T12:48:13.872Z,10.33
2016-12-24T12:49:47.633Z,10.27
2016-12-24T12:51:21.417Z,10.33
2016-12-24T12:52:55.589Z,10.25
2016-12-24T12:54:29.073Z,10.3
2016-12-24T12:56:02.531Z,10.36
2016-12-24T12:57:36.578Z,10.24
2016-12-24T12:59:10.933Z,10.25
2016-12-24T13:00:45.423Z,10.2
2016-12-24T13:02:18.828Z,10.25
2016-12-24T13:03:52.614Z,10.2
2016-12-24T13:05:54.394Z,10.3
2016-12-24T13:07:28.042Z,10.31
2016-12-24T13:09:01.771Z,10.21
2016-12-24T13:10:35.948Z,10.18
2016-12-24T13:12:29.093Z,10.27
2016-12-24T13:14:02.865Z,10.18
2016-12-24T13:15:38.168Z,10.21
2016-12-24T13:17:12.281Z,10.17
2016-12-24T13:18:45.665Z,10.03
2016-12-24T13:20:19.693Z,10.02
2016-12-24T13:21:53.807Z,10
2016-12-24T13:23:27.560Z,10.06
2016-12-24T13:25:01.494Z,9.97
2016-12-24T13:26:35.337Z,10.03
2016-12-24T13:28:30.664Z,10.03
2016-12-24T13:30:06.791Z,9.94
2016-12-24T13:32:08.856Z,10.1
2016-12-24T13:33:44.823Z,10.03
2016-12-24T13:35:19.433Z,10.07
2016-12-24T13:36:55.703Z,10.1
2016-12-24T13:38:50.551Z,10.07
2016-12-24T13:40:26.839Z,10.03
2016-12-24T13:42:04.134Z,10.02
2016-12-24T13:43:36.079Z,10.07
2016-12-24T13:45:11.028Z,10.1
2016-12-24T13:47:05.971Z,9.99
2016-12-24T13:48:42.892Z,10.06
2016-12-24T13:50:20.604Z,10.18
2016-12-24T13:52:17.736Z,10.13
2016-12-24T13:53:52.838Z,10.1
2016-12-24T13:55:29.867Z,10.2
2016-12-24T13:57:03.831Z,10.1
2016-12-24T13:58:59.891Z,10
2016-12-24T14:00:34.892Z,10.13
2016-12-24T14:02:10.364Z,10.07
2016-12-24T14:03:48.125Z,10.05
2016-12-24T14:05:43.538Z,10.02
2016-12-24T14:07:20.476Z,9.97
2016-12-24T14:08:57.999Z,10
2016-12-24T14:10:49.234Z,10.02
2016-12-24T14:12:25.425Z,9.92
2016-12-24T14:14:02.765Z,9.95
2016-12-24T14:15:37.779Z,9.99
2016-12-24T14:17:14.992Z,9.97
2016-12-24T14:19:12.128Z,9.95
2016-12-24T14:20:48.785Z,9.95
2016-12-24T14:22:23.710Z,9.9
2016-12-24T14:24:19.440Z,9.85
2016-12-24T14:25:50.426Z,9.77
2016-12-24T14:27:25.104Z,9.8
2016-12-24T14:29:02.486Z,9.66
2016-12-24T14:30:36.620Z,9.67
2016-12-24T14:32:12.915Z,9.64
2016-12-24T14:34:08.575Z,9.63
2016-12-24T14:35:44.273Z,9.64
2016-12-24T14:37:20.283Z,9.67
2016-12-24T14:38:56.061Z,9.67
2016-12-24T14:40:50.356Z,9.56
2016-12-24T14:42:25.636Z,9.51
2016-12-24T14:44:01.151Z,9.47
2016-12-24T14:45:36.784Z,9.56
2016-12-24T14:47:33.010Z,9.54
2016-12-24T14:49:09.958Z,9.52
2016-12-24T14:50:47.405Z,9.47
2016-12-24T14:52:22.833Z,9.49
2016-12-24T14:54:15.970Z,9.42
2016-12-24T14:55:46.114Z,9.4
2016-12-24T14:57:01.886Z,9.47
2016-12-24T14:58:52.263Z,9.44
2016-12-24T15:00:30.135Z,9.48
2016-12-24T15:02:05.739Z,9.44
2016-12-24T15:03:40.748Z,9.4
2016-12-24T15:05:10.670Z,9.36
2016-12-24T15:06:46.510Z,9.37
2016-12-24T15:08:21.333Z,9.36
2016-12-24T15:10:18.340Z,9.3
2016-12-24T15:11:55.717Z,9.37
2016-12-24T15:13:29.461Z,9.36
2016-12-24T15:15:00.876Z,9.21
2016-12-24T15:16:35.811Z,9.15
2016-12-24T15:18:10.329Z,9.22
2016-12-24T15:19:44.739Z,9.26
2016-12-24T15:23:48.208Z,9.24
2016-12-24T15:25:27.644Z,9.27
2016-12-24T15:27:21.520Z,9.27
2016-12-24T15:28:56.888Z,9.26
2016-12-24T15:30:33.807Z,9.15
2016-12-24T15:32:30.962Z,9.27
2016-12-24T15:34:05.735Z,9.16
2016-12-24T15:35:47.596Z,9.19
2016-12-24T15:37:18.891Z,9.3
2016-12-24T15:39:15.488Z,9.29
2016-12-24T15:40:50.706Z,9.21
2016-12-24T15:42:25.696Z,9.3
2016-12-24T15:43:56.155Z,9.18
2016-12-24T15:45:30.696Z,9.19
2016-12-24T15:47:32.263Z,9.03
2016-12-24T15:49:07.438Z,9
2016-12-24T15:50:42.997Z,9.03
2016-12-24T15:52:38.994Z,8.96
2016-12-24T15:54:15.086Z,8.95
2016-12-24T15:55:48.795Z,8.79
2016-12-24T15:57:27.060Z,8.87
2016-12-24T15:59:22.427Z,8.82
2016-12-24T16:00:58.893Z,8.89
2016-12-24T16:02:35.528Z,8.92
2016-12-24T16:04:12.620Z,8.77
2016-12-24T16:06:05.767Z,8.81
2016-12-24T16:07:41.542Z,8.78
2016-12-24T16:09:16.627Z,8.84
2016-12-24T16:10:52.222Z,8.78
2016-12-24T16:12:28.523Z,8.86
2016-12-24T16:14:23.670Z,8.75
2016-12-24T16:16:00.016Z,8.64
2016-12-24T16:17:33.487Z,8.74
2016-12-24T16:19:08.542Z,8.66
2016-12-24T16:20:42.932Z,8.74
2016-12-24T16:22:37.034Z,8.6
2016-12-24T16:24:09.349Z,8.64
2016-12-24T16:25:44.801Z,8.69
2016-12-24T16:27:20.958Z,8.59
2016-12-24T16:28:57.191Z,8.64
2016-12-24T16:30:33.298Z,8.61
2016-12-24T16:32:28.274Z,8.54
2016-12-24T16:34:04.257Z,8.61
2016-12-24T16:35:41.620Z,8.74
2016-12-24T16:37:18.599Z,8.63
2016-12-24T16:39:15.283Z,8.71
2016-12-24T16:41:46.943Z,8.64
2016-12-24T16:43:26.737Z,8.63
2016-12-24T16:45:03.778Z,8.44
2016-12-24T16:46:56.993Z,8.39
2016-12-24T16:48:32.250Z,8.45
2016-12-24T16:50:08.499Z,8.59
2016-12-24T16:52:08.900Z,8.63
2016-12-24T16:53:43.160Z,8.6
2016-12-24T16:55:16.787Z,8.66
2016-12-24T16:56:52.730Z,8.59
2016-12-24T16:58:29.658Z,8.59
2016-12-24T17:00:24.605Z,8.66
2016-12-24T17:01:59.801Z,8.46
2016-12-24T17:03:35.497Z,8.44
2016-12-24T17:05:07.279Z,8.41
2016-12-24T17:06:45.822Z,8.49
2016-12-24T17:08:41.525Z,8.57
2016-12-24T17:10:44.625Z,8.45
2016-12-24T17:12:20.811Z,8.54
2016-12-24T17:13:57.623Z,8.52
2016-12-24T17:15:29.395Z,8.52
2016-12-24T17:17:04.157Z,8.54
2016-12-24T17:18:37.011Z,8.49
2016-12-24T17:20:33.451Z,8.53
2016-12-24T17:22:08.952Z,8.6
2016-12-24T17:23:43.394Z,8.36
2016-12-24T17:25:18.703Z,8.41
2016-12-24T17:26:52.407Z,8.41
2016-12-24T17:28:28.157Z,8.42
2016-12-24T17:30:22.883Z,8.45
2016-12-24T17:31:58.583Z,8.36
2016-12-24T17:33:33.846Z,8.36
2016-12-24T17:35:04.071Z,8.35
2016-12-24T17:36:38.721Z,8.42
2016-12-24T17:38:15.357Z,8.31
2016-12-24T17:39:50.770Z,8.46
2016-12-24T17:41:20.769Z,8.36
2016-12-24T17:42:50.046Z,8.31
2016-12-24T17:44:24.463Z,8.44
2016-12-24T17:46:01.143Z,8.38
2016-12-24T17:47:56.662Z,8.42
2016-12-24T17:49:33.688Z,8.32
2016-12-24T17:51:08.240Z,8.26
2016-12-24T17:52:45.400Z,8.32
2016-12-24T17:54:40.595Z,8.32
2016-12-24T17:56:17.503Z,8.21
2016-12-24T17:58:16.169Z,8.31
2016-12-24T18:00:21.365Z,8.21
2016-12-24T18:01:59.966Z,8.26
2016-12-24T18:03:56.339Z,8.38
2016-12-24T18:05:32.861Z,8.32
2016-12-24T18:07:35.451Z,8.28
2016-12-24T18:09:08.931Z,8.44
2016-12-24T18:10:46.054Z,8.39
2016-12-24T18:12:22.910Z,8.39
2016-12-24T18:14:20.303Z,8.35
2016-12-24T18:15:55.887Z,8.32
2016-12-24T18:17:32.818Z,8.42
2016-12-24T18:19:26.504Z,8.35
2016-12-24T18:21:02.731Z,8.39
2016-12-24T18:22:38.701Z,8.32
2016-12-24T18:24:15.180Z,8.44
2016-12-24T18:26:11.303Z,8.45
2016-12-24T18:27:49.981Z,8.49
2016-12-24T18:29:26.204Z,8.54
2016-12-24T18:31:20.558Z,8.53
2016-12-24T18:33:00.985Z,8.54
2016-12-24T18:34:56.308Z,8.61
2016-12-24T18:36:32.369Z,8.56
2016-12-24T18:38:10.594Z,8.63
2016-12-24T18:40:14.396Z,8.61
2016-12-24T18:41:48.957Z,8.63
2016-12-24T18:43:51.407Z,8.59
2016-12-24T18:45:47.110Z,8.54
2016-12-24T18:47:23.372Z,8.39
2016-12-24T18:48:59.168Z,8.42
2016-12-24T18:50:34.516Z,8.44
2016-12-24T18:52:10.801Z,8.44
2016-12-24T18:54:03.494Z,8.44
2016-12-24T18:55:36.962Z,8.45
2016-12-24T18:57:10.241Z,8.45
2016-12-24T18:58:44.637Z,8.44
2016-12-24T19:00:18.528Z,8.34
2016-12-24T19:01:47.327Z,8.41
2016-12-24T19:03:01.886Z,8.42
2016-12-24T19:04:55.333Z,8.35
2016-12-24T19:06:31.657Z,8.38
2016-12-24T19:08:05.776Z,8.34
2016-12-24T19:09:39.272Z,8.32
2016-12-24T19:11:13.741Z,8.26
2016-12-24T19:12:48.161Z,8.18
2016-12-24T19:14:21.455Z,8.31
2016-12-24T19:15:54.933Z,8.32
2016-12-24T19:17:28.498Z,8.26
2016-12-24T19:19:22.380Z,8.32
2016-12-24T19:20:55.796Z,8.28
2016-12-24T19:22:29.599Z,8.27
2016-12-24T19:24:03.719Z,8.35
2016-12-24T19:25:37.588Z,8.26
2016-12-24T19:27:11.120Z,8.2
2016-12-24T19:28:39.896Z,8.34
2016-12-24T19:30:13.283Z,8.34
2016-12-24T19:31:43.066Z,8.38
2016-12-24T19:32:58.180Z,8.41
2016-12-24T19:34:31.824Z,8.31
2016-12-24T19:36:05.528Z,8.35
2016-12-24T19:37:58.489Z,8.39
2016-12-24T19:39:32.635Z,8.42
2016-12-24T19:41:06.423Z,8.44
2016-12-24T19:42:41.433Z,8.34
2016-12-24T19:44:15.430Z,8.36
2016-12-24T19:45:49.273Z,8.34
2016-12-24T19:47:23.251Z,8.41
2016-12-24T19:48:56.598Z,8.36
2016-12-24T19:50:30.202Z,8.42
2016-12-24T19:52:03.535Z,8.42
2016-12-24T19:53:37.222Z,8.44
2016-12-24T19:55:11.130Z,8.45
2016-12-24T19:56:44.957Z,8.39
2016-12-24T19:58:38.329Z,8.41
2016-12-24T20:00:12.690Z,8.45
2016-12-24T20:01:46.991Z,8.42
2016-12-24T20:03:21.043Z,8.41
2016-12-24T20:04:55.321Z,8.46
2016-12-24T20:06:28.998Z,8.54
2016-12-24T20:08:03.007Z,8.54
2016-12-24T20:09:37.120Z,8.56
2016-12-24T20:11:10.614Z,8.59
2016-12-24T20:12:44.138Z,8.59
2016-12-24T20:14:13.122Z,8.61
2016-12-24T20:15:46.959Z,8.6
2016-12-24T20:17:20.952Z,8.6
2016-12-24T20:18:51.674Z,8.6
2016-12-24T20:20:27.314Z,8.57
2016-12-24T20:22:01.915Z,8.61
2016-12-24T20:23:30.948Z,8.63
2016-12-24T20:25:05.651Z,8.72
2016-12-24T20:26:39.429Z,8.66
2016-12-24T20:28:13.516Z,8.61
2016-12-24T20:29:49.713Z,8.74
2016-12-24T20:31:43.130Z,8.78
2016-12-24T20:33:18.700Z,8.75
2016-12-24T20:34:52.200Z,8.77
2016-12-24T20:36:28.081Z,8.72
2016-12-24T20:37:57.919Z,8.75
2016-12-24T20:39:32.172Z,8.78
2016-12-24T20:41:06.273Z,8.75
2016-12-24T20:42:40.843Z,8.72
2016-12-24T20:44:14.800Z,8.79
2016-12-24T20:45:48.567Z,8.74
2016-12-24T20:47:23.538Z,8.71
2016-12-24T20:48:57.053Z,8.78
2016-12-24T20:50:50.763Z,8.72
2016-12-24T20:52:24.916Z,8.72
2016-12-24T20:53:59.164Z,8.75
2016-12-24T20:55:33.192Z,8.77
2016-12-24T20:57:07.067Z,8.78
2016-12-24T20:58:41.400Z,8.77
2016-12-24T21:00:15.223Z,8.79
2016-12-24T21:01:49.822Z,8.79
2016-12-24T21:03:24.146Z,8.75
2016-12-24T21:04:58.087Z,8.72
2016-12-24T21:06:50.845Z,8.86
2016-12-24T21:08:24.497Z,8.86
2016-12-24T21:09:58.430Z,8.87
2016-12-24T21:11:32.079Z,8.84
2016-12-24T21:13:06.698Z,8.87
2016-12-24T21:14:36.917Z,8.82
2016-12-24T21:16:11.449Z,8.79
2016-12-24T21:17:40.594Z,8.79
2016-12-24T21:18:55.066Z,8.74
2016-12-24T21:20:24.728Z,8.82
2016-12-24T21:22:21.657Z,8.79
2016-12-24T21:23:50.133Z,8.84
2016-12-24T21:25:04.243Z,8.77
2016-12-24T21:26:37.994Z,8.77
2016-12-24T21:28:11.897Z,8.86
2016-12-24T21:29:45.463Z,8.87
2016-12-24T21:31:38.397Z,8.87
2016-12-24T21:33:12.436Z,8.93
2016-12-24T21:34:46.693Z,8.87
2016-12-24T21:36:20.295Z,8.78